createdAt,value
2019-04-23T00:02:14.263Z,28.70
2019-04-23T00:04:42.910Z,28.70
2019-04-23T00:07:27.599Z,28.80
2019-04-23T00:10:01.179Z,28.70
2019-04-23T00:12:44.068Z,28.60
2019-04-23T00:15:07.509Z,28.90
2019-04-23T00:17:42.653Z,28.90
2019-04-23T00:20:14.731Z,28.90
2019-04-23T00:22:51.757Z,29.10
2019-04-23T00:27:50.361Z,29.40
2019-04-23T00:30:34.729Z,29.10
2019-04-23T00:33:01.592Z,29.30
2019-04-23T00:35:33.920Z,29.40
2019-04-23T00:38:05.998Z,29.40
2019-04-23T00:40:39.064Z,28.90
2019-04-23T00:43:09.041Z,29.20
2019-04-23T00:48:14.898Z,29.20
2019-04-23T00:50:54.271Z,29.20
2019-04-23T00:53:18.885Z,29.30
2019-04-23T00:55:49.070Z,29.20
2019-04-23T00:58:26.975Z,29.50
2019-04-23T01:03:21.435Z,29.80
2019-04-23T01:06:27.260Z,29.70
2019-04-23T01:09:14.167Z,29.70
2019-04-23T01:11:34.224Z,29.60
2019-04-23T01:14:16.250Z,29.40
2019-04-23T01:16:37.502Z,29.40
2019-04-23T01:19:32.028Z,29.70
2019-04-23T01:21:41.169Z,29.90
2019-04-23T01:24:34.330Z,29.90
2019-04-23T01:27:39.606Z,29.80
2019-04-23T01:30:04.734Z,29.90
2019-04-23T01:32:43.191Z,29.90
2019-04-23T01:35:20.245Z,30.00
2019-04-23T01:37:46.646Z,30.20
2019-04-23T01:40:28.813Z,30.20
2019-04-23T01:43:07.525Z,30.40
2019-04-23T01:47:59.757Z,30.70
2019-04-23T01:50:37.102Z,30.70
2019-04-23T01:53:13.141Z,30.50
2019-04-23T01:55:43.999Z,30.60
2019-04-23T02:06:19.856Z,31.10
2019-04-23T02:11:25.689Z,30.90
2019-04-23T02:14:04.869Z,31.00
2019-04-23T02:16:38.833Z,31.10
2019-04-23T02:21:45.225Z,31.70
2019-04-23T02:24:15.855Z,31.70
2019-04-23T02:26:48.616Z,31.90
2019-04-23T02:34:40.971Z,31.10
2019-04-23T02:44:50.682Z,31.50
2019-04-23T02:47:23.513Z,31.40
2019-04-23T02:49:55.417Z,31.20
2019-04-23T02:52:24.924Z,31.30
2019-04-23T02:55:03.905Z,31.60
2019-04-23T02:57:30.650Z,31.90
2019-04-23T03:02:40.930Z,31.70
2019-04-23T03:05:21.612Z,31.90
2019-04-23T03:07:45.656Z,31.90
2019-04-23T03:15:36.588Z,31.90
2019-04-23T03:18:21.006Z,32.00
2019-04-23T03:20:48.707Z,31.70
2019-04-23T03:28:27.284Z,31.00
2019-04-23T03:32:31.857Z,31.20
2019-04-23T03:41:15.403Z,31.60
2019-04-23T03:43:41.231Z,31.40
2019-04-23T03:48:46.614Z,31.60
2019-04-23T03:51:17.241Z,32.00
2019-04-23T03:56:34.301Z,32.30
2019-04-23T03:58:47.279Z,32.30
2019-04-23T04:01:29.895Z,33.40
2019-04-23T04:11:23.083Z,32.80
2019-04-23T04:14:32.119Z,33.30
2019-04-23T04:16:42.620Z,32.90
2019-04-23T04:19:24.559Z,32.80
2019-04-23T04:21:52.568Z,32.50
2019-04-23T04:27:02.926Z,32.70
2019-04-23T04:29:39.700Z,32.80
2019-04-23T04:32:04.303Z,32.90
2019-04-23T04:34:55.561Z,33.10
2019-04-23T04:39:43.650Z,32.90
2019-04-23T04:44:47.784Z,32.90
2019-04-23T04:50:00.220Z,33.00
2019-04-23T04:54:44.545Z,33.40
2019-04-23T04:57:32.937Z,33.50
2019-04-23T05:00:08.295Z,33.70
2019-04-23T05:02:39.152Z,33.20
2019-04-23T05:05:20.647Z,33.40
2019-04-23T05:07:41.576Z,33.40
2019-04-23T05:10:16.446Z,34.10
2019-04-23T05:12:36.232Z,34.00
2019-04-23T05:15:02.727Z,33.90
2019-04-23T05:17:55.112Z,33.80
2019-04-23T05:23:00.432Z,34.40
2019-04-23T05:25:18.029Z,34.40
2019-04-23T05:28:04.181Z,34.30
2019-04-23T05:30:33.035Z,33.90
2019-04-23T05:32:56.078Z,34.20
2019-04-23T05:35:33.358Z,34.40
2019-04-23T05:38:08.748Z,34.70
2019-04-23T05:43:21.762Z,34.40
2019-04-23T05:45:57.371Z,34.00
2019-04-23T05:48:24.843Z,33.80
2019-04-23T05:51:04.243Z,34.40
2019-04-23T05:53:33.343Z,34.50
2019-04-23T05:56:09.484Z,34.70
2019-04-23T05:58:38.687Z,34.40
2019-04-23T06:01:45.718Z,34.90
2019-04-23T06:03:56.466Z,34.70
2019-04-23T06:08:58.411Z,34.40
2019-04-23T06:11:36.996Z,34.80
2019-04-23T06:14:05.308Z,34.60
2019-04-23T06:16:41.616Z,34.90
2019-04-23T06:19:18.252Z,35.40
2019-04-23T06:22:00.436Z,35.30
2019-04-23T06:27:01.670Z,35.30
2019-04-23T06:29:37.609Z,34.80
2019-04-23T06:32:16.658Z,34.80
2019-04-23T06:34:47.315Z,35.20
2019-04-23T06:37:18.442Z,35.00
2019-04-23T06:39:48.431Z,35.00
2019-04-23T06:42:29.591Z,34.90
2019-04-23T06:45:26.078Z,35.20
2019-04-23T06:47:36.112Z,35.20
2019-04-23T06:50:14.816Z,34.90
2019-04-23T06:52:41.863Z,34.90
2019-04-23T06:55:20.487Z,34.70
2019-04-23T06:58:08.348Z,34.80
2019-04-23T07:00:36.661Z,34.40
2019-04-23T07:03:09.157Z,34.80
2019-04-23T07:06:11.937Z,34.70
2019-04-23T07:08:43.917Z,34.70
2019-04-23T07:11:12.222Z,35.20
2019-04-23T07:13:50.755Z,35.40
2019-04-23T07:16:09.199Z,35.10
2019-04-23T07:19:04.319Z,34.90
2019-04-23T07:21:23.590Z,34.50
2019-04-23T07:26:30.414Z,34.90
2019-04-23T07:29:08.987Z,34.40
2019-04-23T07:31:53.975Z,35.10
2019-04-23T07:34:05.511Z,35.10
2019-04-23T07:36:40.592Z,34.90
2019-04-23T07:39:47.341Z,35.50
2019-04-23T07:42:41.890Z,36.20
2019-04-23T07:47:26.487Z,35.60
2019-04-23T07:50:12.875Z,35.40
2019-04-23T07:55:16.310Z,35.00
2019-04-23T07:57:41.646Z,35.00
2019-04-23T08:00:18.179Z,35.10
2019-04-23T08:02:44.024Z,35.30
2019-04-23T08:07:49.793Z,35.90
2019-04-23T08:12:59.510Z,35.90
2019-04-23T08:15:35.305Z,35.10
2019-04-23T08:18:06.700Z,35.00
2019-04-23T08:20:35.063Z,35.20
2019-04-23T08:23:14.010Z,35.10
2019-04-23T08:26:12.990Z,35.60
2019-04-23T08:28:54.800Z,35.10
2019-04-23T08:31:09.842Z,35.20
2019-04-23T08:33:42.189Z,35.40
2019-04-23T08:38:44.355Z,35.90
2019-04-23T08:43:57.176Z,36.10
2019-04-23T08:46:50.952Z,36.10
2019-04-23T08:49:22.739Z,36.00
2019-04-23T08:51:54.764Z,35.90
2019-04-23T08:54:39.419Z,35.90
2019-04-23T08:57:02.408Z,35.50
2019-04-23T09:02:24.210Z,35.40
2019-04-23T09:04:54.197Z,35.40
2019-04-23T09:07:22.351Z,35.60
2019-04-23T09:09:57.623Z,35.70
2019-04-23T09:12:28.705Z,35.20
2019-04-23T09:22:29.611Z,35.10
2019-04-23T09:25:11.650Z,34.60
2019-04-23T09:27:56.310Z,34.70
2019-04-23T09:30:13.174Z,34.80
2019-04-23T09:32:49.186Z,34.50
2019-04-23T09:35:42.749Z,33.60
2019-04-23T09:38:28.165Z,33.20
2019-04-23T09:41:20.099Z,33.40
2019-04-23T09:43:47.255Z,33.40
2019-04-23T09:49:13.423Z,33.50
2019-04-23T09:54:12.902Z,32.70
2019-04-23T09:59:15.668Z,32.60
2019-04-23T10:01:39.395Z,32.50
2019-04-23T10:04:00.110Z,32.50
2019-04-23T10:06:30.230Z,32.40
2019-04-23T10:09:01.454Z,32.20
2019-04-23T10:11:30.567Z,32.30
2019-04-23T10:14:00.751Z,32.60
2019-04-23T10:16:34.093Z,32.00
2019-04-23T10:19:01.531Z,32.50
2019-04-23T10:21:31.236Z,31.90
2019-04-23T10:24:01.386Z,32.10
2019-04-23T10:26:32.427Z,32.60
2019-04-23T10:29:03.667Z,31.80
2019-04-23T10:31:35.608Z,31.70
2019-04-23T10:34:08.271Z,31.90
2019-04-23T10:36:40.619Z,32.20
2019-04-23T10:39:20.771Z,32.20
2019-04-23T10:41:46.799Z,31.40
2019-04-23T10:44:26.823Z,31.80
2019-04-23T10:47:30.072Z,31.70
2019-04-23T10:50:31.632Z,30.90
2019-04-23T10:53:02.150Z,31.40
2019-04-23T10:55:34.974Z,31.40
2019-04-23T10:58:02.025Z,31.50
2019-04-23T11:00:36.079Z,31.40
2019-04-23T11:03:20.653Z,31.00
2019-04-23T11:08:30.895Z,30.50
2019-04-23T11:11:09.308Z,31.20
2019-04-23T11:18:57.798Z,30.00
2019-04-23T11:21:21.855Z,29.80
2019-04-23T11:23:51.688Z,29.70
2019-04-23T11:26:28.605Z,30.40
2019-04-23T11:28:55.332Z,30.20
2019-04-23T11:31:39.113Z,29.40
2019-04-23T11:41:57.857Z,28.60
2019-04-23T11:47:09.347Z,28.60
2019-04-23T11:54:41.431Z,28.60
2019-04-23T11:57:24.656Z,28.20
2019-04-23T12:02:06.905Z,28.90
2019-04-23T12:04:57.304Z,28.40
2019-04-23T12:07:34.731Z,27.60
2019-04-23T12:10:26.823Z,27.90
2019-04-23T12:12:39.581Z,27.80
2019-04-23T12:15:05.797Z,27.50
2019-04-23T12:17:50.876Z,27.30
2019-04-23T12:20:27.169Z,27.20
2019-04-23T12:23:06.369Z,26.60
2019-04-23T12:27:51.825Z,26.80
2019-04-23T12:30:45.446Z,26.70
2019-04-23T12:33:28.108Z,27.20
2019-04-23T12:35:44.049Z,26.80
2019-04-23T12:38:25.579Z,25.80
2019-04-23T12:40:56.401Z,26.10
2019-04-23T12:43:25.660Z,26.40
2019-04-23T12:45:57.838Z,26.30
2019-04-23T12:51:08.825Z,25.40
2019-04-23T12:53:52.489Z,26.00
2019-04-23T12:56:17.572Z,25.60
2019-04-23T12:58:41.450Z,26.00
2019-04-23T13:01:22.395Z,26.20
2019-04-23T13:03:45.522Z,25.80
2019-04-23T13:06:25.260Z,26.00
2019-04-23T13:09:21.797Z,25.90
2019-04-23T13:14:17.385Z,27.50
2019-04-23T13:17:02.688Z,26.90
2019-04-23T13:19:33.340Z,26.00
2019-04-23T13:22:17.987Z,26.70
2019-04-23T13:24:44.061Z,27.10
2019-04-23T13:27:23.839Z,26.90
2019-04-23T13:29:50.154Z,26.60
2019-04-23T13:32:21.593Z,26.80
2019-04-23T13:35:18.535Z,26.70
2019-04-23T13:37:29.807Z,25.90
2019-04-23T13:39:51.904Z,25.80
2019-04-23T13:42:31.729Z,26.10
2019-04-23T13:45:04.944Z,25.90
2019-04-23T13:50:07.881Z,25.60
2019-04-23T13:55:09.199Z,25.30
2019-04-23T14:00:21.114Z,26.00
2019-04-23T14:02:42.423Z,25.60
2019-04-23T14:08:13.280Z,25.50
2019-04-23T14:13:30.249Z,25.50
2019-04-23T14:20:53.206Z,25.40
2019-04-23T14:23:31.549Z,25.40
2019-04-23T14:26:10.840Z,25.40
2019-04-23T14:28:28.755Z,24.40
2019-04-23T14:30:59.210Z,25.20
2019-04-23T14:33:37.935Z,25.50
2019-04-23T14:36:05.350Z,25.60
2019-04-23T14:48:53.879Z,25.70
2019-04-23T14:53:48.349Z,26.30
2019-04-23T14:56:23.956Z,25.70
2019-04-23T15:01:36.106Z,25.20
2019-04-23T15:04:13.233Z,24.90
2019-04-23T15:06:36.336Z,24.90
2019-04-23T15:09:19.228Z,24.70
2019-04-23T15:11:39.045Z,24.50
2019-04-23T15:14:10.221Z,24.80
2019-04-23T15:19:35.126Z,24.50
2019-04-23T15:21:53.910Z,24.30
2019-04-23T15:24:25.272Z,24.00
2019-04-23T15:29:09.398Z,22.90
2019-04-23T15:34:42.958Z,23.30
2019-04-23T15:39:46.559Z,23.90
2019-04-23T15:42:08.069Z,23.40
2019-04-23T15:44:23.118Z,23.70
2019-04-23T15:47:10.753Z,24.40
2019-04-23T15:49:35.637Z,24.70
2019-04-23T15:52:10.739Z,24.70
2019-04-23T15:54:42.911Z,24.50
2019-04-23T15:57:19.606Z,24.70
2019-04-23T16:01:49.828Z,25.20
2019-04-23T16:04:20.067Z,25.20
2019-04-23T16:06:50.093Z,25.70
2019-04-23T16:09:50.976Z,25.90
2019-04-23T16:12:17.632Z,25.90
2019-04-23T16:15:02.464Z,25.80
2019-04-23T16:17:28.964Z,25.60
2019-04-23T16:22:36.895Z,26.00
2019-04-23T16:25:12.945Z,26.40
2019-04-23T16:27:41.824Z,26.30
2019-04-23T16:30:19.107Z,26.40
2019-04-23T16:35:32.901Z,26.90
2019-04-23T16:38:18.008Z,26.90
2019-04-23T16:40:39.454Z,27.20
2019-04-23T16:45:49.263Z,26.80
2019-04-23T16:56:55.616Z,27.90
2019-04-23T16:58:59.439Z,28.00
2019-04-23T17:01:23.013Z,28.00
2019-04-23T17:04:05.022Z,27.80
2019-04-23T17:06:29.439Z,28.00
2019-04-23T17:08:59.911Z,28.10
2019-04-23T17:11:33.623Z,28.30
2019-04-23T17:14:10.157Z,28.00
2019-04-23T17:16:38.116Z,27.60
2019-04-23T17:19:16.459Z,27.60
2019-04-23T17:21:44.402Z,27.40
2019-04-23T17:26:54.015Z,27.90
2019-04-23T17:31:53.797Z,28.30
2019-04-23T17:37:17.875Z,28.80
2019-04-23T17:40:04.552Z,28.90
2019-04-23T17:42:43.998Z,28.50
2019-04-23T17:45:28.671Z,28.80
2019-04-23T17:48:11.824Z,29.10
2019-04-23T17:51:08.159Z,29.80
2019-04-23T17:53:22.303Z,30.90
2019-04-23T17:56:01.105Z,30.50
2019-04-23T18:01:17.200Z,32.00
2019-04-23T18:03:50.230Z,32.90
2019-04-23T18:08:50.938Z,33.90
2019-04-23T18:13:48.389Z,34.90
2019-04-23T18:16:30.350Z,34.70
2019-04-23T18:21:35.684Z,34.90
2019-04-23T18:24:22.685Z,35.00
2019-04-23T18:26:56.870Z,35.30
2019-04-23T18:29:41.752Z,36.40
2019-04-23T18:32:16.370Z,36.60
2019-04-23T18:35:10.446Z,37.10
2019-04-23T18:37:26.129Z,37.10
2019-04-23T18:39:50.205Z,37.60
2019-04-23T18:44:56.189Z,38.40
2019-04-23T18:47:32.461Z,38.40
2019-04-23T18:50:03.885Z,38.70
2019-04-23T18:52:42.991Z,38.40
2019-04-23T18:55:05.700Z,38.40
2019-04-23T18:57:40.030Z,38.50
2019-04-23T19:00:37.239Z,37.90
2019-04-23T19:02:58.120Z,38.70
2019-04-23T19:05:41.290Z,38.60
2019-04-23T19:08:28.131Z,38.70
2019-04-23T19:10:57.780Z,38.90
2019-04-23T19:13:31.201Z,38.60
2019-04-23T19:15:54.739Z,39.00
2019-04-23T19:18:41.604Z,38.70
2019-04-23T19:21:17.480Z,38.70
2019-04-23T19:23:47.554Z,38.90
2019-04-23T19:26:32.317Z,39.00
2019-04-23T19:31:53.399Z,38.60
2019-04-23T19:34:22.053Z,38.40
2019-04-23T19:36:59.746Z,38.80
2019-04-23T19:42:02.082Z,38.60
2019-04-23T19:44:31.391Z,38.70
2019-04-23T19:47:02.150Z,38.40
2019-04-23T19:51:59.182Z,39.10
2019-04-23T19:54:51.177Z,38.80
2019-04-23T19:57:22.213Z,38.50
2019-04-23T19:59:44.456Z,38.70
2019-04-23T20:02:17.392Z,39.30
2019-04-23T20:07:30.898Z,39.60
2019-04-23T20:12:28.328Z,40.40
2019-04-23T20:14:58.149Z,40.30
2019-04-23T20:20:14.523Z,40.60
2019-04-23T20:22:41.623Z,40.60
2019-04-23T20:25:20.890Z,40.90
2019-04-23T20:27:48.614Z,41.10
2019-04-23T20:30:41.339Z,41.00
2019-04-23T20:35:38.246Z,41.80
2019-04-23T20:38:25.754Z,41.70
2019-04-23T20:40:49.749Z,41.40
2019-04-23T20:43:14.988Z,41.20
2019-04-23T20:45:55.978Z,41.30
2019-04-23T20:48:27.337Z,41.50
2019-04-23T20:50:54.329Z,41.70
2019-04-23T20:53:38.338Z,41.30
2019-04-23T20:56:07.314Z,41.60
2019-04-23T20:58:48.050Z,41.30
2019-04-23T21:03:55.497Z,40.80
2019-04-23T21:06:45.920Z,41.30
2019-04-23T21:09:23.654Z,41.80
2019-04-23T21:11:40.685Z,41.60
2019-04-23T21:14:15.410Z,41.80
2019-04-23T21:16:41.232Z,41.90
2019-04-23T21:19:25.933Z,41.80
2019-04-23T21:22:13.982Z,41.80
2019-04-23T21:24:42.891Z,41.60
2019-04-23T21:27:21.719Z,41.20
2019-04-23T21:29:58.593Z,41.00
2019-04-23T21:32:33.471Z,41.30
2019-04-23T21:35:04.486Z,41.40
2019-04-23T21:38:00.314Z,41.60
2019-04-23T21:43:35.261Z,41.80
2019-04-23T21:46:12.502Z,41.90
2019-04-23T21:48:28.630Z,41.60
2019-04-23T21:50:57.752Z,41.40
2019-04-23T21:53:29.160Z,41.30
2019-04-23T21:58:34.691Z,41.40
2019-04-23T22:01:05.332Z,41.40
2019-04-23T22:03:42.589Z,41.40
2019-04-23T22:06:06.133Z,41.70
2019-04-23T22:08:36.953Z,42.00
2019-04-23T22:11:24.300Z,41.70
2019-04-23T22:13:51.644Z,42.20
2019-04-23T22:18:57.178Z,42.90
2019-04-23T22:21:26.165Z,42.60
2019-04-23T22:24:02.995Z,42.40
2019-04-23T22:31:38.770Z,43.40
2019-04-23T22:34:09.267Z,43.50
2019-04-23T22:42:34.995Z,43.70
2019-04-23T22:44:51.320Z,43.40
2019-04-23T22:49:51.332Z,42.40
2019-04-23T22:54:39.752Z,42.20
2019-04-23T22:57:04.844Z,42.30
2019-04-23T22:59:59.473Z,41.90
2019-04-23T23:08:07.884Z,41.90
2019-04-23T23:10:46.401Z,42.60
2019-04-23T23:13:20.580Z,42.80
2019-04-23T23:18:19.831Z,42.80
2019-04-23T23:23:21.085Z,43.10
2019-04-23T23:26:02.317Z,42.80
2019-04-23T23:28:38.105Z,43.30
2019-04-23T23:31:08.526Z,43.20
2019-04-23T23:33:42.904Z,43.70
2019-04-23T23:36:12.413Z,43.60
2019-04-23T23:38:42.178Z,44.00
2019-04-23T23:43:48.422Z,44.10
2019-04-23T23:46:27.718Z,43.50
2019-04-23T23:48:42.016Z,44.10
2019-04-23T23:58:57.035Z,44.40
